Time;durP1;ratioP1;P1;durP2;ratioP2;P2;SDS_P1;SDS_P2;PMS_P1;PMS_P2;Temp;Humidity;BMP_temperature;BMP_pressure;BME280_temperature;BME280_humidity;BME280_pressure;Samples;Min_cycle;Max_cycle;Signal;HPM_P1;HPM_P2
2023/09/30 00:01:11;;;;;;;11.15;6.95;;;17.10;99.90;;;;;;4990837;28;20548;-72
2023/09/30 00:03:37;;;;;;;11.15;5.72;;;17.00;99.90;;;;;;4990061;28;20026;-72
2023/09/30 00:06:03;;;;;;;10.70;6.90;;;17.10;99.90;;;;;;4993483;28;20061;-73
2023/09/30 00:08:29;;;;;;;10.07;6.20;;;17.20;99.90;;;;;;4994987;28;20509;-72
2023/09/30 00:10:55;;;;;;;8.93;6.40;;;17.30;99.90;;;;;;4999789;28;20125;-72
2023/09/30 00:13:21;;;;;;;8.85;6.13;;;17.20;99.90;;;;;;4990843;28;20535;-72
2023/09/30 00:15:47;;;;;;;9.95;6.55;;;17.10;99.90;;;;;;4992539;28;20498;-72
2023/09/30 00:18:13;;;;;;;12.20;5.85;;;17.10;99.90;;;;;;4994234;28;20102;-72
2023/09/30 00:20:39;;;;;;;10.98;6.55;;;17.00;99.90;;;;;;4992755;28;20057;-72
2023/09/30 00:23:06;;;;;;;9.85;6.25;;;17.00;99.90;;;;;;4995990;28;20500;-72
2023/09/30 00:25:32;;;;;;;14.02;8.18;;;17.00;99.90;;;;;;4992293;28;20151;-72
2023/09/30 00:27:57;;;;;;;13.20;7.40;;;17.00;99.90;;;;;;4992434;28;20053;-75
2023/09/30 00:30:23;;;;;;;9.18;6.70;;;16.90;99.90;;;;;;4980842;28;20023;-72
2023/09/30 00:32:49;;;;;;;14.15;5.63;;;16.70;99.90;;;;;;4984014;28;20092;-72
2023/09/30 00:35:16;;;;;;;10.30;6.53;;;16.50;99.90;;;;;;4989543;28;20121;-72
2023/09/30 00:37:42;;;;;;;8.20;6.85;;;16.50;99.90;;;;;;4999314;28;20541;-72
2023/09/30 00:40:12;;;;;;;9.48;6.25;;;16.50;99.90;;;;;;4993193;28;20081;-73
2023/09/30 00:42:41;;;;;;;16.08;7.78;;;16.40;99.90;;;;;;4989801;28;20511;-72
2023/09/30 00:45:08;;;;;;;9.00;6.25;;;16.40;99.90;;;;;;4994212;28;20101;-72
2023/09/30 00:47:36;;;;;;;10.00;6.75;;;16.60;99.90;;;;;;5001388;28;20088;-74
2023/09/30 00:50:03;;;;;;;10.82;6.60;;;16.70;99.90;;;;;;4990322;28;20034;-72
2023/09/30 00:52:33;;;;;;;11.40;6.60;;;16.80;99.90;;;;;;4986586;28;24467;-71
2023/09/30 00:54:59;;;;;;;11.13;6.68;;;16.90;99.90;;;;;;4989772;28;20066;-72
2023/09/30 00:57:25;;;;;;;11.45;6.72;;;16.90;99.90;;;;;;4998722;28;20081;-72
2023/09/30 00:59:52;;;;;;;16.20;7.55;;;16.80;99.90;;;;;;4989617;28;21319;-72
2023/09/30 01:02:18;;;;;;;10.35;6.38;;;16.70;99.90;;;;;;4994290;28;20471;-72
2023/09/30 01:04:45;;;;;;;9.68;6.45;;;16.70;99.90;;;;;;4990564;28;20457;-72
2023/09/30 01:07:11;;;;;;;13.93;7.45;;;16.80;99.90;;;;;;4992362;28;20117;-72
2023/09/30 01:09:37;;;;;;;11.65;6.72;;;16.80;99.90;;;;;;4993646;28;20121;-71
2023/09/30 01:12:04;;;;;;;8.75;6.68;;;16.80;99.90;;;;;;4995240;28;20030;-72
2023/09/30 01:14:41;;;;;;;10.93;6.55;;;16.90;99.90;;;;;;4996353;28;20125;-71
2023/09/30 01:17:13;;;;;;;7.93;5.82;;;16.90;99.90;;;;;;4989939;28;20033;-73
2023/09/30 01:19:39;;;;;;;13.00;7.32;;;16.90;99.90;;;;;;4988655;28;20366;-73
2023/09/30 01:22:04;;;;;;;9.25;6.65;;;17.00;99.90;;;;;;4991430;28;20029;-73
2023/09/30 01:24:30;;;;;;;9.02;6.13;;;16.90;99.90;;;;;;4992243;28;20029;-73
2023/09/30 01:26:56;;;;;;;11.30;6.97;;;16.80;99.90;;;;;;4990958;28;20125;-73
2023/09/30 01:29:22;;;;;;;16.77;7.07;;;16.70;99.90;;;;;;4991696;28;20034;-71
2023/09/30 01:31:49;;;;;;;10.52;6.32;;;16.70;99.90;;;;;;4993731;28;20384;-73
2023/09/30 01:34:16;;;;;;;14.50;6.90;;;16.70;99.90;;;;;;4996837;28;20110;-74
2023/09/30 01:36:42;;;;;;;12.77;7.18;;;16.70;99.90;;;;;;4998768;28;20834;-74
2023/09/30 01:39:10;;;;;;;9.35;6.45;;;16.70;99.90;;;;;;5000500;28;20373;-73
2023/09/30 01:41:36;;;;;;;15.45;6.72;;;16.60;99.90;;;;;;5001549;28;20033;-73
2023/09/30 01:44:02;;;;;;;12.90;7.80;;;16.60;99.90;;;;;;4999510;28;20030;-73
2023/09/30 01:46:28;;;;;;;11.05;6.65;;;16.40;99.90;;;;;;5000602;28;20096;-73
2023/09/30 01:48:54;;;;;;;12.60;7.35;;;16.40;99.90;;;;;;4998783;28;20110;-73
2023/09/30 01:51:19;;;;;;;13.32;7.57;;;16.50;99.90;;;;;;5000531;28;20080;-73
2023/09/30 01:53:45;;;;;;;11.35;7.45;;;16.60;99.90;;;;;;4994942;28;20038;-72
2023/09/30 01:56:10;;;;;;;12.80;7.68;;;16.50;99.90;;;;;;5005020;28;20061;-74
2023/09/30 01:58:36;;;;;;;11.77;7.30;;;16.60;99.90;;;;;;4995230;28;20062;-74
2023/09/30 02:01:03;;;;;;;11.43;7.78;;;16.50;99.90;;;;;;4998060;28;20169;-73
2023/09/30 02:03:29;;;;;;;14.10;7.20;;;16.50;99.90;;;;;;5004589;28;20084;-73
2023/09/30 02:05:55;;;;;;;13.82;7.53;;;16.60;99.90;;;;;;4996795;28;20042;-73
2023/09/30 02:08:22;;;;;;;11.02;7.63;;;16.40;99.90;;;;;;4997044;28;23337;-73
2023/09/30 02:10:48;;;;;;;13.35;7.38;;;16.40;99.90;;;;;;4990814;28;20076;-72
2023/09/30 02:13:13;;;;;;;10.95;7.63;;;16.40;99.90;;;;;;4990222;28;20030;-73
2023/09/30 02:15:42;;;;;;;14.77;8.05;;;16.60;99.90;;;;;;4998152;28;20034;-73
2023/09/30 02:18:09;;;;;;;12.35;8.10;;;16.60;99.90;;;;;;4991164;28;20048;-74
2023/09/30 02:20:40;;;;;;;12.23;8.55;;;16.50;99.90;;;;;;5001147;28;20037;-73
2023/09/30 02:23:10;;;;;;;23.15;8.52;;;16.60;99.90;;;;;;4997293;28;20392;-73
2023/09/30 02:25:39;;;;;;;10.00;7.18;;;16.50;99.90;;;;;;4994069;28;20324;-72
2023/09/30 02:28:08;;;;;;;12.90;7.60;;;16.50;99.90;;;;;;4990418;28;20062;-74
2023/09/30 02:30:34;;;;;;;10.98;6.78;;;16.40;99.90;;;;;;4992194;28;20027;-72
2023/09/30 02:33:00;;;;;;;10.52;6.78;;;16.40;99.90;;;;;;4999532;28;20128;-72
2023/09/30 02:35:26;;;;;;;12.90;7.40;;;16.30;99.90;;;;;;5002650;28;20108;-72
2023/09/30 02:37:52;;;;;;;10.02;7.15;;;16.30;99.90;;;;;;4994174;28;20035;-73
2023/09/30 02:40:19;;;;;;;11.02;7.80;;;16.50;99.90;;;;;;4999971;28;20021;-72
2023/09/30 02:42:45;;;;;;;14.15;7.43;;;16.40;99.90;;;;;;4994962;28;20026;-74
2023/09/30 02:45:12;;;;;;;12.30;8.55;;;16.40;99.90;;;;;;4995144;28;20034;-72
2023/09/30 02:47:38;;;;;;;13.25;7.80;;;16.40;99.90;;;;;;4997408;28;20034;-73
2023/09/30 02:50:11;;;;;;;10.68;7.32;;;16.40;99.90;;;;;;5006278;28;20021;-75
2023/09/30 02:52:36;;;;;;;10.95;7.30;;;16.40;99.90;;;;;;4994936;28;20034;-73
2023/09/30 02:55:02;;;;;;;12.70;7.57;;;16.30;99.90;;;;;;4996663;28;20495;-72
2023/09/30 02:57:28;;;;;;;10.95;6.93;;;16.30;99.90;;;;;;4997006;28;20033;-73
2023/09/30 02:59:54;;;;;;;11.68;8.55;;;16.20;99.90;;;;;;4999306;28;20428;-73
2023/09/30 03:02:23;;;;;;;12.88;8.65;;;16.20;99.90;;;;;;5002860;28;20485;-72
2023/09/30 03:04:51;;;;;;;14.50;8.55;;;16.30;99.90;;;;;;4992005;28;20149;-73
2023/09/30 03:07:20;;;;;;;9.85;7.80;;;16.20;99.90;;;;;;4987370;28;20125;-75
2023/09/30 03:09:46;;;;;;;12.23;7.63;;;16.30;99.90;;;;;;4992603;28;20037;-74
2023/09/30 03:12:13;;;;;;;13.90;7.28;;;16.20;99.90;;;;;;4980160;28;20042;-73
2023/09/30 03:14:40;;;;;;;13.77;8.25;;;16.20;99.90;;;;;;4996066;28;20064;-73
2023/09/30 03:17:11;;;;;;;11.95;8.63;;;16.20;99.90;;;;;;4995434;28;20034;-75
2023/09/30 03:19:37;;;;;;;11.13;7.25;;;16.10;99.90;;;;;;4984385;28;20418;-73
2023/09/30 03:22:05;;;;;;;11.38;6.90;;;16.20;99.90;;;;;;4989065;28;20033;-73
2023/09/30 03:24:31;;;;;;;12.52;7.32;;;16.20;99.90;;;;;;4996933;28;20524;-73
2023/09/30 03:26:57;;;;;;;10.80;7.05;;;16.20;99.90;;;;;;4997312;28;20133;-72
2023/09/30 03:29:23;;;;;;;16.13;8.02;;;16.20;99.90;;;;;;4997323;28;20026;-72
2023/09/30 03:31:49;;;;;;;14.43;7.45;;;16.00;99.90;;;;;;4992067;28;20372;-74
2023/09/30 03:34:16;;;;;;;12.98;8.60;;;16.00;99.90;;;;;;4992497;28;20030;-73
2023/09/30 03:36:42;;;;;;;12.82;7.60;;;16.00;99.90;;;;;;4987849;28;20034;-73
2023/09/30 03:39:08;;;;;;;13.75;7.85;;;16.00;99.90;;;;;;4988653;28;20037;-73
2023/09/30 03:41:36;;;;;;;12.30;7.78;;;16.00;99.90;;;;;;4991262;28;20030;-72
2023/09/30 03:44:02;;;;;;;11.55;7.05;;;16.00;99.90;;;;;;4988303;28;20030;-72
2023/09/30 03:46:28;;;;;;;10.10;7.80;;;16.00;99.90;;;;;;4985337;28;20039;-72
2023/09/30 03:48:55;;;;;;;13.80;7.88;;;16.00;99.90;;;;;;4992871;28;20583;-72
2023/09/30 03:51:24;;;;;;;13.88;8.05;;;16.00;99.90;;;;;;4995083;28;20384;-72
2023/09/30 03:53:50;;;;;;;16.95;7.82;;;15.90;99.90;;;;;;4992987;28;20038;-72
2023/09/30 03:56:16;;;;;;;13.20;7.88;;;15.80;99.90;;;;;;4992503;28;20446;-72
2023/09/30 03:58:43;;;;;;;15.95;9.13;;;15.60;99.90;;;;;;4991933;28;20050;-72
2023/09/30 04:01:13;;;;;;;10.80;7.88;;;15.70;99.90;;;;;;4981304;28;20622;-72
2023/09/30 04:03:39;;;;;;;11.55;7.43;;;15.80;99.90;;;;;;4990184;28;20483;-72
2023/09/30 04:06:06;;;;;;;14.95;8.52;;;15.80;99.90;;;;;;4990371;28;20022;-72
2023/09/30 04:08:33;;;;;;;12.10;7.75;;;15.80;99.90;;;;;;4998556;28;20500;-72
2023/09/30 04:11:05;;;;;;;11.63;7.50;;;15.80;99.90;;;;;;4994833;28;20113;-72
2023/09/30 04:13:31;;;;;;;13.70;6.97;;;15.60;99.90;;;;;;4988379;28;20037;-71
2023/09/30 04:16:00;;;;;;;15.88;8.15;;;15.60;99.90;;;;;;4988183;28;20149;-71
2023/09/30 04:18:28;;;;;;;14.23;7.63;;;15.40;99.90;;;;;;4993708;28;20038;-72
2023/09/30 04:20:54;;;;;;;11.15;7.65;;;15.40;99.90;;;;;;4984287;28;20033;-72
2023/09/30 04:23:20;;;;;;;11.30;8.25;;;15.40;99.90;;;;;;4982202;28;20023;-71
2023/09/30 04:25:46;;;;;;;10.20;7.95;;;15.40;99.90;;;;;;4987206;28;20465;-72
2023/09/30 04:28:13;;;;;;;12.50;7.82;;;15.40;99.90;;;;;;4966028;28;20050;-72
2023/09/30 04:30:40;;;;;;;12.45;7.80;;;15.50;99.90;;;;;;4986824;28;20022;-72
2023/09/30 04:33:05;;;;;;;15.00;7.70;;;15.60;99.90;;;;;;4982533;28;20030;-72
2023/09/30 04:35:31;;;;;;;16.30;8.15;;;15.60;99.90;;;;;;4990901;28;20523;-73
2023/09/30 04:38:01;;;;;;;13.45;8.13;;;15.70;99.90;;;;;;4999918;28;20060;-71
2023/09/30 04:40:27;;;;;;;13.15;8.10;;;15.70;99.90;;;;;;4986163;28;20030;-72
2023/09/30 04:42:55;;;;;;;10.63;8.02;;;15.80;99.90;;;;;;4993743;28;20080;-73
2023/09/30 04:45:20;;;;;;;14.07;9.60;;;15.70;99.90;;;;;;4989018;28;20129;-72
2023/09/30 04:47:48;;;;;;;14.30;8.27;;;15.60;99.90;;;;;;4989119;28;20113;-73
2023/09/30 04:50:16;;;;;;;12.90;8.02;;;15.60;99.90;;;;;;4988620;28;20535;-73
2023/09/30 04:52:42;;;;;;;11.02;7.68;;;15.60;99.90;;;;;;4993529;28;20460;-73
2023/09/30 04:55:08;;;;;;;13.25;8.23;;;15.50;99.90;;;;;;4989641;28;20030;-74
2023/09/30 04:57:34;;;;;;;10.18;7.50;;;15.40;99.90;;;;;;4988054;28;20034;-73
2023/09/30 05:00:00;;;;;;;13.10;8.73;;;15.40;99.90;;;;;;4982896;28;20427;-72
2023/09/30 05:02:27;;;;;;;11.48;7.47;;;15.40;99.90;;;;;;4983675;28;20025;-73
2023/09/30 05:04:53;;;;;;;10.27;8.15;;;15.50;99.90;;;;;;4987987;28;20037;-73
2023/09/30 05:07:21;;;;;;;12.50;8.55;;;15.50;99.90;;;;;;4991563;28;20037;-73
2023/09/30 05:09:47;;;;;;;13.60;9.07;;;15.50;99.90;;;;;;4987669;28;20501;-73
2023/09/30 05:12:13;;;;;;;13.98;8.18;;;15.50;99.90;;;;;;4986502;28;20477;-73
2023/09/30 05:14:39;;;;;;;16.50;8.20;;;15.40;99.90;;;;;;4989354;28;20058;-72
2023/09/30 05:17:05;;;;;;;13.60;8.45;;;15.40;99.90;;;;;;4987681;28;20026;-72
2023/09/30 05:19:32;;;;;;;10.88;8.30;;;15.30;99.90;;;;;;4991349;28;20392;-73
2023/09/30 05:21:58;;;;;;;14.07;8.85;;;15.30;99.90;;;;;;4990571;28;20108;-73
2023/09/30 05:24:23;;;;;;;11.48;8.85;;;15.30;99.90;;;;;;4990119;28;20072;-74
2023/09/30 05:26:49;;;;;;;14.38;10.10;;;15.30;99.90;;;;;;4994474;28;20112;-73
2023/09/30 05:29:16;;;;;;;14.40;9.98;;;15.30;99.90;;;;;;4992518;28;20069;-72
2023/09/30 05:31:42;;;;;;;16.30;10.27;;;15.30;99.90;;;;;;4993149;28;20550;-73
2023/09/30 05:34:07;;;;;;;13.15;9.43;;;15.40;99.90;;;;;;4992729;28;20042;-72
2023/09/30 05:36:34;;;;;;;14.43;8.95;;;15.40;99.90;;;;;;4984599;28;20034;-73
2023/09/30 05:39:00;;;;;;;13.48;8.68;;;15.50;99.90;;;;;;4989829;28;20026;-72
2023/09/30 05:41:27;;;;;;;13.38;8.10;;;15.40;99.90;;;;;;4990028;28;20552;-73
2023/09/30 05:43:53;;;;;;;15.13;7.88;;;15.30;99.90;;;;;;4989295;28;20034;-72
2023/09/30 05:46:19;;;;;;;11.50;8.32;;;15.40;99.90;;;;;;4988672;28;20041;-73
2023/09/30 05:48:44;;;;;;;12.65;7.82;;;15.40;99.90;;;;;;4990008;28;20097;-72
2023/09/30 05:51:14;;;;;;;12.73;8.15;;;15.40;99.90;;;;;;4990793;28;20033;-73
2023/09/30 05:53:41;;;;;;;12.05;8.18;;;15.40;99.90;;;;;;4993357;28;20026;-73
2023/09/30 05:56:07;;;;;;;12.07;7.68;;;15.40;99.90;;;;;;4990537;28;20034;-75
2023/09/30 05:58:33;;;;;;;13.45;7.32;;;15.50;99.90;;;;;;4978751;28;20038;-73
2023/09/30 06:01:00;;;;;;;13.07;8.27;;;15.50;99.90;;;;;;4984686;28;20030;-74
2023/09/30 06:03:29;;;;;;;12.90;8.30;;;15.50;99.90;;;;;;4995545;28;20053;-74
2023/09/30 06:05:55;;;;;;;13.40;8.55;;;15.50;99.90;;;;;;4989623;28;20588;-73
2023/09/30 06:08:21;;;;;;;10.82;7.18;;;15.40;99.90;;;;;;4986865;28;20081;-72
2023/09/30 06:10:47;;;;;;;12.52;8.20;;;15.40;99.90;;;;;;4995863;28;20675;-73
2023/09/30 06:13:14;;;;;;;12.00;8.18;;;15.50;99.90;;;;;;4991984;28;20037;-72
2023/09/30 06:15:41;;;;;;;11.48;8.20;;;15.60;99.90;;;;;;4993747;28;20026;-73
2023/09/30 06:18:07;;;;;;;11.48;7.50;;;15.70;99.90;;;;;;4993012;28;20029;-73
2023/09/30 06:20:33;;;;;;;12.90;7.78;;;15.60;99.90;;;;;;4987320;28;20160;-73
2023/09/30 06:23:00;;;;;;;10.95;6.68;;;15.70;99.90;;;;;;4989478;28;20116;-72
2023/09/30 06:25:27;;;;;;;10.15;7.28;;;15.60;99.90;;;;;;4992574;28;20499;-72
2023/09/30 06:27:56;;;;;;;12.95;8.13;;;15.70;99.90;;;;;;4985712;28;20509;-73
2023/09/30 06:30:29;;;;;;;13.05;8.52;;;15.80;99.90;;;;;;4990489;28;20030;-73
2023/09/30 06:32:59;;;;;;;10.07;7.53;;;16.00;99.90;;;;;;4993256;28;20034;-72
2023/09/30 06:35:26;;;;;;;11.30;7.63;;;16.10;99.90;;;;;;4999696;28;20052;-73
2023/09/30 06:37:52;;;;;;;13.77;7.82;;;16.10;99.90;;;;;;4989997;28;20100;-72
2023/09/30 06:40:18;;;;;;;12.35;8.25;;;16.20;99.90;;;;;;4984182;28;20030;-73
2023/09/30 06:42:44;;;;;;;14.05;7.43;;;16.20;99.90;;;;;;4996486;28;20041;-73
2023/09/30 06:45:10;;;;;;;9.98;8.07;;;16.10;99.90;;;;;;4995273;28;20017;-72
2023/09/30 06:47:37;;;;;;;12.02;7.43;;;16.10;99.90;;;;;;4996139;28;20441;-74
2023/09/30 06:50:08;;;;;;;10.90;6.90;;;16.00;99.90;;;;;;4990024;28;20026;-72
2023/09/30 06:52:38;;;;;;;11.48;7.53;;;16.10;99.90;;;;;;4992226;28;20033;-74
2023/09/30 06:55:05;;;;;;;13.35;7.40;;;16.20;99.90;;;;;;4992289;28;20125;-76
2023/09/30 06:57:33;;;;;;;13.05;7.53;;;16.20;99.90;;;;;;4989784;28;20029;-74
2023/09/30 06:59:59;;;;;;;11.02;7.97;;;16.30;99.90;;;;;;4987344;28;20046;-74
2023/09/30 07:02:25;;;;;;;9.65;7.57;;;16.50;99.90;;;;;;4986893;28;20015;-74
2023/09/30 07:04:52;;;;;;;13.57;7.97;;;16.50;99.90;;;;;;4982990;28;20042;-74
2023/09/30 07:07:17;;;;;;;14.18;8.00;;;16.60;99.90;;;;;;4990996;28;20037;-74
2023/09/30 07:09:44;;;;;;;14.93;8.32;;;16.70;99.90;;;;;;4990666;28;20397;-74
2023/09/30 07:12:10;;;;;;;11.65;7.25;;;16.70;99.90;;;;;;4990292;28;20612;-74
2023/09/30 07:14:36;;;;;;;11.98;7.80;;;16.70;99.90;;;;;;4985923;28;20033;-75
2023/09/30 07:17:04;;;;;;;12.05;8.30;;;16.70;99.90;;;;;;4985684;28;20030;-75
2023/09/30 07:19:30;;;;;;;13.23;7.55;;;16.70;99.90;;;;;;4972196;28;20587;-74
2023/09/30 07:21:56;;;;;;;10.07;6.68;;;16.70;99.90;;;;;;4995227;28;20141;-74
2023/09/30 07:24:22;;;;;;;10.85;7.07;;;16.80;99.90;;;;;;4997837;28;20180;-73
2023/09/30 07:26:47;;;;;;;12.63;7.65;;;16.70;99.90;;;;;;4988519;28;20436;-73
2023/09/30 07:29:13;;;;;;;11.73;8.10;;;16.70;99.90;;;;;;4984831;28;20026;-72
2023/09/30 07:31:39;;;;;;;10.38;7.22;;;16.80;99.90;;;;;;4989705;28;20030;-73
2023/09/30 07:34:04;;;;;;;10.25;6.80;;;16.90;99.90;;;;;;4991705;28;20081;-72
2023/09/30 07:36:30;;;;;;;12.15;7.53;;;16.90;99.90;;;;;;4989253;28;20493;-74
2023/09/30 07:38:56;;;;;;;11.60;8.00;;;17.00;99.90;;;;;;4986717;28;20031;-73
2023/09/30 07:41:21;;;;;;;9.50;6.93;;;17.10;99.90;;;;;;4988588;28;20038;-73
2023/09/30 07:43:47;;;;;;;12.80;7.53;;;17.10;99.90;;;;;;4986107;28;20029;-74
2023/09/30 07:46:15;;;;;;;14.77;8.02;;;17.10;99.90;;;;;;4983912;28;20416;-73
2023/09/30 07:48:41;;;;;;;9.93;7.25;;;17.10;99.90;;;;;;4983231;28;20519;-74
2023/09/30 07:51:12;;;;;;;10.38;7.15;;;17.10;99.90;;;;;;4986665;28;20030;-73
2023/09/30 07:53:40;;;;;;;12.88;7.40;;;17.10;99.90;;;;;;4991771;28;20369;-73
2023/09/30 07:56:06;;;;;;;11.27;7.18;;;17.10;99.90;;;;;;4996238;28;20036;-73
2023/09/30 07:58:33;;;;;;;9.88;6.85;;;17.10;99.90;;;;;;4984102;28;20050;-76
2023/09/30 08:00:58;;;;;;;9.35;6.82;;;17.10;99.90;;;;;;4990935;28;20526;-72
2023/09/30 08:03:24;;;;;;;12.50;7.30;;;17.10;99.90;;;;;;4994402;28;20026;-72
2023/09/30 08:05:50;;;;;;;15.25;7.85;;;17.10;99.90;;;;;;4996119;28;20070;-73
2023/09/30 08:08:16;;;;;;;10.93;6.80;;;17.10;99.90;;;;;;4992108;28;20042;-72
2023/09/30 08:10:42;;;;;;;9.88;6.93;;;17.30;99.90;;;;;;4994479;28;20052;-72
2023/09/30 08:13:09;;;;;;;11.13;7.38;;;17.40;99.90;;;;;;5003311;28;20034;-73
2023/09/30 08:15:35;;;;;;;10.65;6.93;;;17.50;99.90;;;;;;5002114;28;20041;-72
2023/09/30 08:18:02;;;;;;;12.13;7.00;;;17.50;99.90;;;;;;5001151;28;20026;-73
2023/09/30 08:20:28;;;;;;;11.13;8.20;;;17.60;99.90;;;;;;5001769;28;20026;-72
2023/09/30 08:22:54;;;;;;;10.02;7.20;;;17.80;99.90;;;;;;4996646;28;20034;-72
2023/09/30 08:25:19;;;;;;;15.27;8.18;;;17.80;99.90;;;;;;5004858;28;20030;-73
2023/09/30 08:27:49;;;;;;;11.70;8.20;;;17.80;99.90;;;;;;4998610;28;20088;-73
2023/09/30 08:30:15;;;;;;;15.43;8.32;;;17.80;99.90;;;;;;4994145;28;20066;-73
2023/09/30 08:32:40;;;;;;;12.82;7.95;;;17.70;99.90;;;;;;5004988;28;20372;-72
2023/09/30 08:35:07;;;;;;;12.10;8.05;;;17.80;99.90;;;;;;5000930;28;20096;-73
2023/09/30 08:37:32;;;;;;;12.10;7.97;;;17.90;99.90;;;;;;5007873;28;20037;-72
2023/09/30 08:39:58;;;;;;;12.38;7.63;;;17.90;99.90;;;;;;5007076;28;20029;-73
2023/09/30 08:42:31;;;;;;;10.48;7.38;;;18.00;99.90;;;;;;5004535;28;20420;-73
2023/09/30 08:44:57;;;;;;;10.93;7.95;;;18.10;99.90;;;;;;5007587;28;20026;-72
2023/09/30 08:47:28;;;;;;;11.82;7.97;;;18.20;99.90;;;;;;5002314;28;20031;-72
2023/09/30 08:49:57;;;;;;;10.95;7.22;;;18.20;99.90;;;;;;5001790;28;20161;-72
2023/09/30 08:52:24;;;;;;;13.55;8.63;;;18.30;99.90;;;;;;5003820;28;20360;-73
2023/09/30 08:54:50;;;;;;;11.48;7.22;;;18.40;99.90;;;;;;5005173;28;20151;-73
2023/09/30 08:57:19;;;;;;;10.90;7.05;;;18.40;99.90;;;;;;5006222;28;20493;-72
2023/09/30 08:59:48;;;;;;;11.30;7.25;;;18.40;99.90;;;;;;4998901;28;20042;-72
2023/09/30 09:02:14;;;;;;;13.85;7.82;;;18.40;99.90;;;;;;5004562;28;20026;-73
2023/09/30 09:04:40;;;;;;;11.93;7.47;;;18.50;99.90;;;;;;5006683;28;20419;-76
2023/09/30 09:07:06;;;;;;;10.75;7.78;;;18.50;99.90;;;;;;5005698;28;20535;-74
2023/09/30 09:09:32;;;;;;;11.52;7.57;;;18.50;99.90;;;;;;5008030;28;20113;-77
2023/09/30 09:11:58;;;;;;;11.00;7.60;;;18.60;99.90;;;;;;5006897;28;20037;-76
2023/09/30 09:14:46;;;;;;;12.25;7.57;;;18.60;99.90;;;;;;5000840;28;20037;-72
2023/09/30 09:17:11;;;;;;;13.93;7.43;;;18.70;99.90;;;;;;5000893;28;20037;-72
2023/09/30 09:19:37;;;;;;;11.68;7.28;;;18.80;99.90;;;;;;5006608;28;20014;-72
2023/09/30 09:22:06;;;;;;;10.95;6.45;;;18.80;99.90;;;;;;5007139;28;20041;-72
2023/09/30 09:24:42;;;;;;;13.57;8.48;;;19.20;99.90;;;;;;5002267;28;20329;-72
2023/09/30 09:27:09;;;;;;;11.80;7.07;;;19.40;99.90;;;;;;5005149;28;20085;-72
2023/09/30 09:29:36;;;;;;;12.27;8.05;;;19.40;99.90;;;;;;5004331;28;20149;-73
2023/09/30 09:32:17;;;;;;;12.57;6.93;;;19.60;99.90;;;;;;5003157;28;20121;-72
2023/09/30 09:34:45;;;;;;;9.70;6.82;;;19.70;99.90;;;;;;4986262;28;20445;-71
2023/09/30 09:37:20;;;;;;;13.25;6.95;;;19.70;99.90;;;;;;5005841;28;20353;-73
2023/09/30 09:40:07;;;;;;;13.40;6.47;;;19.70;99.90;;;;;;4999514;28;20026;-72
2023/09/30 09:42:34;;;;;;;12.45;7.00;;;19.70;99.90;;;;;;4999120;28;20416;-72
2023/09/30 09:45:03;;;;;;;11.05;8.13;;;19.80;99.90;;;;;;4998141;28;20088;-72
2023/09/30 09:47:31;;;;;;;11.80;7.25;;;19.90;99.90;;;;;;5005611;28;20679;-73
2023/09/30 09:49:58;;;;;;;10.30;7.10;;;20.00;99.90;;;;;;4992859;28;20041;-72
2023/09/30 09:52:24;;;;;;;15.27;7.38;;;20.00;99.90;;;;;;4995744;28;20034;-72
2023/09/30 09:54:51;;;;;;;10.43;7.75;;;20.20;99.90;;;;;;5009768;28;20117;-72
2023/09/30 09:57:20;;;;;;;14.98;6.95;;;20.10;99.90;;;;;;4997184;28;20503;-72
2023/09/30 09:59:47;;;;;;;12.25;6.78;;;20.10;99.90;;;;;;4994094;28;20077;-72
2023/09/30 10:02:17;;;;;;;12.75;7.28;;;20.10;99.90;;;;;;4985171;28;20046;-73
2023/09/30 10:04:45;;;;;;;12.45;6.80;;;20.30;99.90;;;;;;4986651;28;20022;-72
2023/09/30 10:07:24;;;;;;;8.13;6.40;;;20.50;99.90;;;;;;4991081;28;20030;-71
2023/09/30 10:09:53;;;;;;;9.00;6.82;;;20.40;99.90;;;;;;4984628;28;20408;-71
2023/09/30 10:12:21;;;;;;;10.95;7.10;;;20.40;99.90;;;;;;4992104;28;20041;-72
2023/09/30 10:14:47;;;;;;;10.43;6.80;;;20.50;99.90;;;;;;4984275;28;20488;-72
2023/09/30 10:17:13;;;;;;;10.70;7.25;;;20.50;99.90;;;;;;4990046;28;20038;-72
2023/09/30 10:20:09;;;;;;;10.38;6.65;;;20.60;99.90;;;;;;4984158;28;20608;-72
2023/09/30 10:22:35;;;;;;;10.65;7.13;;;20.70;99.90;;;;;;4985077;28;20054;-72
2023/09/30 10:25:01;;;;;;;10.27;6.93;;;21.10;99.90;;;;;;4986902;28;20125;-73
2023/09/30 10:27:28;;;;;;;10.90;6.53;;;21.20;99.90;;;;;;4988012;28;20120;-72
2023/09/30 10:30:16;;;;;;;12.57;6.68;;;21.20;99.90;;;;;;4986544;28;20026;-71
2023/09/30 10:32:51;;;;;;;12.98;7.82;;;21.50;99.90;;;;;;4989199;28;20083;-71
2023/09/30 10:35:31;;;;;;;10.85;6.80;;;21.60;99.90;;;;;;4989168;28;20034;-72
2023/09/30 10:38:25;;;;;;;11.63;7.43;;;21.60;99.90;;;;;;4985377;28;22939;-72
2023/09/30 10:40:51;;;;;;;11.88;7.40;;;21.80;99.90;;;;;;4984182;28;20041;-72
2023/09/30 10:43:32;;;;;;;17.98;7.28;;;21.90;99.90;;;;;;4996838;28;20037;-72
2023/09/30 10:46:02;;;;;;;10.10;6.15;;;22.00;99.90;;;;;;4988356;28;20038;-72
2023/09/30 10:48:28;;;;;;;7.43;5.60;;;22.00;99.90;;;;;;4983438;28;20042;-73
2023/09/30 10:51:01;;;;;;;9.57;6.70;;;22.00;99.90;;;;;;4986179;28;20038;-72
2023/09/30 10:53:28;;;;;;;8.60;5.82;;;22.10;99.90;;;;;;4988491;28;20505;-72
2023/09/30 10:55:59;;;;;;;8.93;6.10;;;22.10;99.90;;;;;;4988901;28;20038;-73
2023/09/30 10:58:42;;;;;;;9.18;7.05;;;22.10;99.90;;;;;;4995032;28;20050;-72
2023/09/30 11:01:08;;;;;;;12.57;7.10;;;22.10;99.90;;;;;;4987963;28;20026;-72
2023/09/30 11:03:34;;;;;;;13.75;6.93;;;22.20;99.90;;;;;;4989890;28;20133;-74
2023/09/30 11:05:59;;;;;;;9.73;5.97;;;22.40;99.90;;;;;;4980990;28;20033;-73
2023/09/30 11:08:29;;;;;;;12.15;6.53;;;22.80;99.90;;;;;;4979480;28;20587;-73
2023/09/30 11:10:56;;;;;;;21.33;7.55;;;23.00;99.90;;;;;;4983771;28;20026;-72
2023/09/30 11:13:22;;;;;;;17.75;7.40;;;23.20;99.90;;;;;;4981972;28;20029;-72
2023/09/30 11:16:01;;;;;;;13.20;5.85;;;23.20;99.90;;;;;;4986249;28;20034;-72
2023/09/30 11:18:26;;;;;;;9.10;6.57;;;23.20;99.90;;;;;;4992579;28;20033;-72
2023/09/30 11:21:07;;;;;;;11.25;6.30;;;23.30;99.90;;;;;;5004315;28;20041;-73
2023/09/30 11:23:33;;;;;;;10.40;6.53;;;23.30;99.90;;;;;;4990554;28;20026;-71
2023/09/30 11:25:59;;;;;;;11.50;6.65;;;23.10;99.90;;;;;;4998283;28;20193;-72
2023/09/30 11:28:27;;;;;;;12.43;6.40;;;23.20;99.90;;;;;;4999720;28;20045;-72
2023/09/30 11:30:57;;;;;;;10.90;6.32;;;23.00;99.90;;;;;;5009040;28;20044;-72
2023/09/30 11:33:24;;;;;;;11.38;6.03;;;22.90;99.90;;;;;;5007219;28;20038;-73
2023/09/30 11:36:16;;;;;;;10.43;6.68;;;23.10;99.90;;;;;;4999446;28;20058;-71
2023/09/30 11:38:48;;;;;;;9.02;5.68;;;23.40;99.90;;;;;;4985752;28;20163;-72
2023/09/30 11:41:15;;;;;;;9.23;6.43;;;23.70;99.90;;;;;;5000570;28;20044;-71
2023/09/30 11:44:04;;;;;;;8.05;5.55;;;23.30;99.90;;;;;;4998308;28;20030;-71
2023/09/30 11:46:33;;;;;;;9.43;5.88;;;23.40;99.90;;;;;;4988543;28;20039;-71
2023/09/30 11:49:04;;;;;;;11.15;6.70;;;23.70;99.90;;;;;;5002647;28;20038;-72
2023/09/30 11:51:45;;;;;;;11.32;6.65;;;23.80;99.90;;;;;;4985759;28;20026;-71
2023/09/30 11:54:14;;;;;;;12.13;5.88;;;24.00;99.90;;;;;;4991341;28;20097;-73
2023/09/30 11:56:40;;;;;;;12.38;5.63;;;23.90;99.90;;;;;;4983408;28;20022;-71
2023/09/30 11:59:05;;;;;;;9.38;6.45;;;23.60;99.90;;;;;;4991184;28;20085;-71
2023/09/30 12:01:32;;;;;;;11.95;6.32;;;23.70;99.90;;;;;;4991064;28;20030;-71
2023/09/30 12:03:58;;;;;;;7.47;5.78;;;23.70;99.90;;;;;;4991578;28;20030;-72
2023/09/30 12:06:24;;;;;;;10.73;5.90;;;23.80;99.90;;;;;;4985173;28;20038;-72
2023/09/30 12:08:51;;;;;;;10.93;6.65;;;23.90;99.90;;;;;;4984422;28;20389;-73
2023/09/30 12:11:18;;;;;;;8.02;5.53;;;24.10;99.90;;;;;;4986216;28;20035;-72
2023/09/30 12:13:48;;;;;;;8.20;5.80;;;24.30;99.90;;;;;;4990994;28;20451;-71
2023/09/30 12:16:15;;;;;;;11.43;5.57;;;24.20;99.90;;;;;;4986189;28;20045;-72
2023/09/30 12:18:41;;;;;;;11.07;6.28;;;24.30;99.90;;;;;;4984651;28;20029;-72
2023/09/30 12:21:10;;;;;;;13.90;5.70;;;24.20;99.90;;;;;;4986370;28;20049;-74
2023/09/30 12:23:36;;;;;;;10.88;6.05;;;24.30;99.90;;;;;;4983847;28;20347;-72
2023/09/30 12:26:06;;;;;;;7.63;5.78;;;24.60;99.90;;;;;;4987768;28;20038;-72
2023/09/30 12:28:32;;;;;;;13.65;5.75;;;24.60;99.90;;;;;;4989967;28;20568;-72
2023/09/30 12:31:01;;;;;;;7.90;5.45;;;24.60;99.90;;;;;;4989777;28;20037;-74
2023/09/30 12:33:27;;;;;;;12.80;6.30;;;24.60;99.90;;;;;;4983512;28;20138;-73
2023/09/30 12:35:53;;;;;;;8.40;6.00;;;24.60;99.90;;;;;;4997296;28;20704;-73
2023/09/30 12:38:19;;;;;;;8.60;5.95;;;24.50;99.90;;;;;;4988222;28;20041;-72
2023/09/30 12:40:44;;;;;;;10.45;6.05;;;24.30;99.90;;;;;;4994303;28;20519;-72